sensor_id;sensor_type;location;lat;lon;timestamp;P1;durP1;ratioP1;P2;durP2;ratioP2
15218;SDS011;15623;53.986;11.676;2022-10-16T00:06:12;10.30;;;9.50;;
15218;SDS011;15623;53.986;11.676;2022-10-16T00:09:07;9.85;;;9.18;;
15218;SDS011;15623;53.986;11.676;2022-10-16T00:14:33;10.70;;;9.90;;
15218;SDS011;15623;53.986;11.676;2022-10-16T00:17:02;10.90;;;10.05;;
15218;SDS011;15623;53.986;11.676;2022-10-16T00:22:41;10.00;;;9.40;;
15218;SDS011;15623;53.986;11.676;2022-10-16T00:25:09;10.88;;;10.05;;
15218;SDS011;15623;53.986;11.676;2022-10-16T00:27:37;10.48;;;9.68;;
15218;SDS011;15623;53.986;11.676;2022-10-16T00:30:06;10.68;;;8.98;;
15218;SDS011;15623;53.986;11.676;2022-10-16T00:32:35;9.68;;;9.07;;
15218;SDS011;15623;53.986;11.676;2022-10-16T00:35:03;9.73;;;8.88;;
15218;SDS011;15623;53.986;11.676;2022-10-16T00:37:31;9.00;;;8.27;;
15218;SDS011;15623;53.986;11.676;2022-10-16T00:40:00;9.80;;;8.35;;
15218;SDS011;15623;53.986;11.676;2022-10-16T00:52:59;9.80;;;8.80;;
15218;SDS011;15623;53.986;11.676;2022-10-16T00:59:38;10.57;;;9.75;;
15218;SDS011;15623;53.986;11.676;2022-10-16T01:02:07;11.05;;;10.10;;
15218;SDS011;15623;53.986;11.676;2022-10-16T01:04:36;11.57;;;10.77;;
15218;SDS011;15623;53.986;11.676;2022-10-16T01:07:24;12.57;;;11.45;;
15218;SDS011;15623;53.986;11.676;2022-10-16T01:10:14;13.63;;;12.60;;
15218;SDS011;15623;53.986;11.676;2022-10-16T01:12:49;14.70;;;13.35;;
15218;SDS011;15623;53.986;11.676;2022-10-16T01:15:22;14.77;;;13.57;;
15218;SDS011;15623;53.986;11.676;2022-10-16T01:17:56;15.35;;;14.02;;
15218;SDS011;15623;53.986;11.676;2022-10-16T01:23:06;16.58;;;13.32;;
15218;SDS011;15623;53.986;11.676;2022-10-16T01:25:58;14.32;;;13.02;;
15218;SDS011;15623;53.986;11.676;2022-10-16T01:28:31;14.00;;;12.60;;
15218;SDS011;15623;53.986;11.676;2022-10-16T01:31:00;12.98;;;11.98;;
15218;SDS011;15623;53.986;11.676;2022-10-16T01:33:30;12.55;;;11.65;;
15218;SDS011;15623;53.986;11.676;2022-10-16T01:36:07;13.30;;;12.15;;
15218;SDS011;15623;53.986;11.676;2022-10-16T01:39:09;12.15;;;11.05;;
15218;SDS011;15623;53.986;11.676;2022-10-16T01:41:38;11.85;;;10.95;;
15218;SDS011;15623;53.986;11.676;2022-10-16T01:44:08;14.98;;;10.00;;
15218;SDS011;15623;53.986;11.676;2022-10-16T01:46:39;10.65;;;9.63;;
15218;SDS011;15623;53.986;11.676;2022-10-16T01:49:08;9.97;;;9.27;;
15218;SDS011;15623;53.986;11.676;2022-10-16T01:51:37;9.32;;;8.63;;
15218;SDS011;15623;53.986;11.676;2022-10-16T02:05:50;8.45;;;7.72;;
15218;SDS011;15623;53.986;11.676;2022-10-16T02:08:19;9.17;;;8.27;;
15218;SDS011;15623;53.986;11.676;2022-10-16T02:10:47;8.63;;;7.73;;
15218;SDS011;15623;53.986;11.676;2022-10-16T02:13:19;9.95;;;8.80;;
15218;SDS011;15623;53.986;11.676;2022-10-16T02:16:02;8.43;;;7.70;;
15218;SDS011;15623;53.986;11.676;2022-10-16T02:18:31;9.40;;;8.50;;
15218;SDS011;15623;53.986;11.676;2022-10-16T02:24:13;9.17;;;8.47;;
15218;SDS011;15623;53.986;11.676;2022-10-16T02:27:22;10.00;;;9.00;;
15218;SDS011;15623;53.986;11.676;2022-10-16T02:30:27;8.80;;;7.97;;
15218;SDS011;15623;53.986;11.676;2022-10-16T02:38:34;9.57;;;7.47;;
15218;SDS011;15623;53.986;11.676;2022-10-16T02:41:23;8.37;;;7.53;;
15218;SDS011;15623;53.986;11.676;2022-10-16T02:47:08;7.97;;;7.20;;
15218;SDS011;15623;53.986;11.676;2022-10-16T02:49:37;7.67;;;7.10;;
15218;SDS011;15623;53.986;11.676;2022-10-16T02:52:05;8.77;;;7.30;;
15218;SDS011;15623;53.986;11.676;2022-10-16T02:54:33;8.03;;;7.27;;
15218;SDS011;15623;53.986;11.676;2022-10-16T02:57:29;7.40;;;6.90;;
15218;SDS011;15623;53.986;11.676;2022-10-16T03:02:57;8.00;;;7.20;;
15218;SDS011;15623;53.986;11.676;2022-10-16T03:05:38;9.97;;;6.93;;
15218;SDS011;15623;53.986;11.676;2022-10-16T03:08:06;8.47;;;7.03;;
15218;SDS011;15623;53.986;11.676;2022-10-16T03:10:33;11.17;;;6.93;;
15218;SDS011;15623;53.986;11.676;2022-10-16T03:13:02;6.60;;;6.03;;
15218;SDS011;15623;53.986;11.676;2022-10-16T03:15:33;7.23;;;6.43;;
15218;SDS011;15623;53.986;11.676;2022-10-16T03:18:04;6.38;;;5.97;;
15218;SDS011;15623;53.986;11.676;2022-10-16T04:16:35;6.27;;;3.97;;
15218;SDS011;15623;53.986;11.676;2022-10-16T04:19:03;5.50;;;4.00;;
15218;SDS011;15623;53.986;11.676;2022-10-16T04:21:49;4.77;;;4.07;;
15218;SDS011;15623;53.986;11.676;2022-10-16T04:48:30;4.35;;;3.78;;
15218;SDS011;15623;53.986;11.676;2022-10-16T04:50:59;4.10;;;3.70;;
15218;SDS011;15623;53.986;11.676;2022-10-16T04:53:52;5.13;;;3.67;;
15218;SDS011;15623;53.986;11.676;2022-10-16T04:56:23;6.83;;;3.17;;
15218;SDS011;15623;53.986;11.676;2022-10-16T04:58:50;3.10;;;2.70;;
15218;SDS011;15623;53.986;11.676;2022-10-16T05:01:18;3.30;;;3.00;;
15218;SDS011;15623;53.986;11.676;2022-10-16T05:03:48;4.73;;;2.60;;
15218;SDS011;15623;53.986;11.676;2022-10-16T05:06:15;5.27;;;3.10;;
15218;SDS011;15623;53.986;11.676;2022-10-16T05:55:53;3.23;;;2.93;;
15218;SDS011;15623;53.986;11.676;2022-10-16T05:58:21;6.07;;;3.30;;
15218;SDS011;15623;53.986;11.676;2022-10-16T06:03:25;2.97;;;2.47;;
15218;SDS011;15623;53.986;11.676;2022-10-16T06:05:56;6.67;;;2.67;;
15218;SDS011;15623;53.986;11.676;2022-10-16T06:08:25;6.37;;;2.20;;
15218;SDS011;15623;53.986;11.676;2022-10-16T06:11:02;3.10;;;2.57;;
15218;SDS011;15623;53.986;11.676;2022-10-16T06:13:30;4.27;;;2.50;;
15218;SDS011;15623;53.986;11.676;2022-10-16T06:15:57;3.97;;;2.30;;
15218;SDS011;15623;53.986;11.676;2022-10-16T06:18:25;3.53;;;2.20;;
15218;SDS011;15623;53.986;11.676;2022-10-16T06:20:57;6.70;;;2.30;;
15218;SDS011;15623;53.986;11.676;2022-10-16T06:23:24;5.10;;;2.23;;
15218;SDS011;15623;53.986;11.676;2022-10-16T06:25:52;3.63;;;2.20;;
15218;SDS011;15623;53.986;11.676;2022-10-16T06:28:21;5.13;;;2.90;;
15218;SDS011;15623;53.986;11.676;2022-10-16T06:30:48;3.57;;;2.00;;
15218;SDS011;15623;53.986;11.676;2022-10-16T06:33:16;2.70;;;2.20;;
15218;SDS011;15623;53.986;11.676;2022-10-16T06:35:43;4.87;;;2.00;;
15218;SDS011;15623;53.986;11.676;2022-10-16T06:38:31;3.20;;;1.90;;
15218;SDS011;15623;53.986;11.676;2022-10-16T06:41:16;4.47;;;2.00;;
15218;SDS011;15623;53.986;11.676;2022-10-16T06:53:06;3.63;;;2.27;;
15218;SDS011;15623;53.986;11.676;2022-10-16T06:55:36;4.83;;;2.50;;
15218;SDS011;15623;53.986;11.676;2022-10-16T07:00:55;4.50;;;2.27;;
15218;SDS011;15623;53.986;11.676;2022-10-16T07:03:29;8.33;;;2.13;;
15218;SDS011;15623;53.986;11.676;2022-10-16T07:11:50;2.10;;;1.90;;
15218;SDS011;15623;53.986;11.676;2022-10-16T07:14:18;3.95;;;2.63;;
15218;SDS011;15623;53.986;11.676;2022-10-16T09:37:32;2.92;;;1.45;;
15218;SDS011;15623;53.986;11.676;2022-10-16T09:45:57;1.73;;;1.30;;
15218;SDS011;15623;53.986;11.676;2022-10-16T09:48:58;2.45;;;1.65;;
15218;SDS011;15623;53.986;11.676;2022-10-16T09:51:27;3.38;;;1.50;;
15218;SDS011;15623;53.986;11.676;2022-10-16T09:53:58;3.58;;;1.40;;
15218;SDS011;15623;53.986;11.676;2022-10-16T09:56:36;2.33;;;1.52;;
15218;SDS011;15623;53.986;11.676;2022-10-16T09:59:11;2.75;;;1.40;;
15218;SDS011;15623;53.986;11.676;2022-10-16T10:01:50;2.28;;;1.20;;
15218;SDS011;15623;53.986;11.676;2022-10-16T10:04:37;2.22;;;1.10;;
15218;SDS011;15623;53.986;11.676;2022-10-16T10:07:35;1.77;;;1.15;;
15218;SDS011;15623;53.986;11.676;2022-10-16T10:10:23;2.88;;;1.10;;
15218;SDS011;15623;53.986;11.676;2022-10-16T10:13:03;2.47;;;1.20;;
15218;SDS011;15623;53.986;11.676;2022-10-16T10:15:54;2.83;;;1.05;;
15218;SDS011;15623;53.986;11.676;2022-10-16T10:18:21;6.55;;;1.17;;
15218;SDS011;15623;53.986;11.676;2022-10-16T10:21:04;2.88;;;1.25;;
15218;SDS011;15623;53.986;11.676;2022-10-16T10:23:33;2.67;;;1.10;;
15218;SDS011;15623;53.986;11.676;2022-10-16T10:26:03;2.08;;;0.90;;
15218;SDS011;15623;53.986;11.676;2022-10-16T10:28:47;1.83;;;1.02;;
15218;SDS011;15623;53.986;11.676;2022-10-16T10:31:17;1.30;;;1.10;;
15218;SDS011;15623;53.986;11.676;2022-10-16T10:33:53;1.75;;;0.90;;
15218;SDS011;15623;53.986;11.676;2022-10-16T10:36:26;2.17;;;1.23;;
15218;SDS011;15623;53.986;11.676;2022-10-16T10:39:01;2.53;;;0.90;;
15218;SDS011;15623;53.986;11.676;2022-10-16T10:42:00;3.22;;;1.00;;
15218;SDS011;15623;53.986;11.676;2022-10-16T10:44:54;1.00;;;0.82;;
15218;SDS011;15623;53.986;11.676;2022-10-16T10:47:26;3.15;;;0.90;;
15218;SDS011;15623;53.986;11.676;2022-10-16T10:50:06;1.88;;;1.00;;
15218;SDS011;15623;53.986;11.676;2022-10-16T10:52:43;2.70;;;1.00;;
15218;SDS011;15623;53.986;11.676;2022-10-16T12:30:42;1.23;;;0.80;;
15218;SDS011;15623;53.986;11.676;2022-10-16T12:33:41;2.33;;;0.70;;
15218;SDS011;15623;53.986;11.676;2022-10-16T12:36:36;3.92;;;0.90;;
15218;SDS011;15623;53.986;11.676;2022-10-16T12:44:57;0.82;;;0.75;;
